sensor_id;sensor_type;location;lat;lon;timestamp;temperature;humidity
68977;SHT31;56029;52.568;13.588;2022-08-19T00:00:13;20.84;93.26
68977;SHT31;56029;52.568;13.588;2022-08-19T00:02:59;20.74;93.76
68977;SHT31;56029;52.568;13.588;2022-08-19T00:05:25;20.74;94.14
68977;SHT31;56029;52.568;13.588;2022-08-19T00:07:51;20.65;94.42
68977;SHT31;56029;52.568;13.588;2022-08-19T00:10:19;20.63;94.34
68977;SHT31;56029;52.568;13.588;2022-08-19T00:12:45;20.57;94.74
68977;SHT31;56029;52.568;13.588;2022-08-19T00:15:14;20.55;94.88
68977;SHT31;56029;52.568;13.588;2022-08-19T00:17:41;20.51;94.72
68977;SHT31;56029;52.568;13.588;2022-08-19T00:20:09;20.55;95.19
68977;SHT31;56029;52.568;13.588;2022-08-19T00:22:36;20.58;95.26
68977;SHT31;56029;52.568;13.588;2022-08-19T00:25:03;20.61;95.35
68977;SHT31;56029;52.568;13.588;2022-08-19T00:27:29;20.61;94.93
68977;SHT31;56029;52.568;13.588;2022-08-19T00:29:57;20.65;95.19
68977;SHT31;56029;52.568;13.588;2022-08-19T00:32:24;20.68;95.29
68977;SHT31;56029;52.568;13.588;2022-08-19T00:34:51;20.67;94.56
68977;SHT31;56029;52.568;13.588;2022-08-19T00:37:21;20.63;94.89
68977;SHT31;56029;52.568;13.588;2022-08-19T00:39:49;20.63;95.24
68977;SHT31;56029;52.568;13.588;2022-08-19T00:42:19;20.60;95.34
68977;SHT31;56029;52.568;13.588;2022-08-19T00:44:45;20.55;95.60
68977;SHT31;56029;52.568;13.588;2022-08-19T00:47:11;20.51;96.26
68977;SHT31;56029;52.568;13.588;2022-08-19T00:49:44;20.47;96.64
68977;SHT31;56029;52.568;13.588;2022-08-19T00:52:15;20.47;96.54
68977;SHT31;56029;52.568;13.588;2022-08-19T00:54:43;20.33;97.26
68977;SHT31;56029;52.568;13.588;2022-08-19T00:57:12;20.34;97.27
68977;SHT31;56029;52.568;13.588;2022-08-19T00:59:41;20.31;97.24
68977;SHT31;56029;52.568;13.588;2022-08-19T01:02:07;20.29;97.06
68977;SHT31;56029;52.568;13.588;2022-08-19T01:04:33;20.27;97.30
68977;SHT31;56029;52.568;13.588;2022-08-19T01:06:59;20.26;97.01
68977;SHT31;56029;52.568;13.588;2022-08-19T01:09:28;20.23;97.05
68977;SHT31;56029;52.568;13.588;2022-08-19T01:11:55;20.21;97.18
68977;SHT31;56029;52.568;13.588;2022-08-19T01:14:21;20.17;97.27
68977;SHT31;56029;52.568;13.588;2022-08-19T01:16:48;20.14;97.51
68977;SHT31;56029;52.568;13.588;2022-08-19T01:19:21;20.08;97.65
68977;SHT31;56029;52.568;13.588;2022-08-19T01:22:03;20.05;98.02
68977;SHT31;56029;52.568;13.588;2022-08-19T01:24:31;20.06;97.25
68977;SHT31;56029;52.568;13.588;2022-08-19T01:26:57;20.12;97.79
68977;SHT31;56029;52.568;13.588;2022-08-19T01:29:22;20.14;97.52
68977;SHT31;56029;52.568;13.588;2022-08-19T01:31:48;20.19;97.61
68977;SHT31;56029;52.568;13.588;2022-08-19T01:34:16;20.19;97.61
68977;SHT31;56029;52.568;13.588;2022-08-19T01:36:44;20.26;97.68
68977;SHT31;56029;52.568;13.588;2022-08-19T01:39:17;20.30;97.71
68977;SHT31;56029;52.568;13.588;2022-08-19T01:41:43;20.30;97.61
68977;SHT31;56029;52.568;13.588;2022-08-19T01:44:09;20.33;97.43
68977;SHT31;56029;52.568;13.588;2022-08-19T01:46:35;20.36;97.65
68977;SHT31;56029;52.568;13.588;2022-08-19T01:49:03;20.26;97.79
68977;SHT31;56029;52.568;13.588;2022-08-19T01:51:28;20.14;97.83
68977;SHT31;56029;52.568;13.588;2022-08-19T01:53:56;20.08;98.21
68977;SHT31;56029;52.568;13.588;2022-08-19T01:56:23;19.50;97.35
68977;SHT31;56029;52.568;13.588;2022-08-19T01:58:58;19.38;96.97
68977;SHT31;56029;52.568;13.588;2022-08-19T02:01:25;19.31;96.90
68977;SHT31;56029;52.568;13.588;2022-08-19T02:03:50;19.30;97.01
68977;SHT31;56029;52.568;13.588;2022-08-19T02:06:18;19.30;97.09
68977;SHT31;56029;52.568;13.588;2022-08-19T02:08:45;19.35;96.99
68977;SHT31;56029;52.568;13.588;2022-08-19T02:11:20;19.35;97.07
68977;SHT31;56029;52.568;13.588;2022-08-19T02:13:46;19.36;97.02
68977;SHT31;56029;52.568;13.588;2022-08-19T02:16:12;19.32;97.07
68977;SHT31;56029;52.568;13.588;2022-08-19T02:18:37;19.41;97.16
68977;SHT31;56029;52.568;13.588;2022-08-19T02:21:03;19.41;97.17
68977;SHT31;56029;52.568;13.588;2022-08-19T02:23:29;19.34;97.20
68977;SHT31;56029;52.568;13.588;2022-08-19T02:25:54;19.32;97.20
68977;SHT31;56029;52.568;13.588;2022-08-19T02:28:20;19.31;97.24
68977;SHT31;56029;52.568;13.588;2022-08-19T02:30:46;19.31;97.31
68977;SHT31;56029;52.568;13.588;2022-08-19T02:33:12;19.32;97.30
68977;SHT31;56029;52.568;13.588;2022-08-19T02:35:41;19.32;97.35
68977;SHT31;56029;52.568;13.588;2022-08-19T02:38:07;19.32;97.36
68977;SHT31;56029;52.568;13.588;2022-08-19T02:40:57;19.34;97.41
68977;SHT31;56029;52.568;13.588;2022-08-19T02:43:24;19.30;97.44
68977;SHT31;56029;52.568;13.588;2022-08-19T02:45:51;19.30;97.43
68977;SHT31;56029;52.568;13.588;2022-08-19T02:48:19;19.27;97.46
68977;SHT31;56029;52.568;13.588;2022-08-19T02:50:46;19.31;97.51
68977;SHT31;56029;52.568;13.588;2022-08-19T02:53:12;19.28;97.53
68977;SHT31;56029;52.568;13.588;2022-08-19T02:55:48;19.23;97.59
68977;SHT31;56029;52.568;13.588;2022-08-19T02:58:15;19.25;97.61
68977;SHT31;56029;52.568;13.588;2022-08-19T03:00:46;19.28;97.66
68977;SHT31;56029;52.568;13.588;2022-08-19T03:03:12;19.30;97.67
68977;SHT31;56029;52.568;13.588;2022-08-19T03:05:39;19.25;97.67
68977;SHT31;56029;52.568;13.588;2022-08-19T03:08:05;19.23;97.79
68977;SHT31;56029;52.568;13.588;2022-08-19T03:10:32;19.17;97.82
68977;SHT31;56029;52.568;13.588;2022-08-19T03:12:57;19.25;97.84
68977;SHT31;56029;52.568;13.588;2022-08-19T03:15:23;19.15;97.75
68977;SHT31;56029;52.568;13.588;2022-08-19T03:17:49;19.13;97.77
68977;SHT31;56029;52.568;13.588;2022-08-19T03:20:14;19.07;97.85
68977;SHT31;56029;52.568;13.588;2022-08-19T03:22:40;19.06;97.89
68977;SHT31;56029;52.568;13.588;2022-08-19T03:25:06;19.03;97.91
68977;SHT31;56029;52.568;13.588;2022-08-19T03:27:31;19.08;97.95
68977;SHT31;56029;52.568;13.588;2022-08-19T03:29:59;19.08;97.96
68977;SHT31;56029;52.568;13.588;2022-08-19T03:32:25;19.03;97.99
68977;SHT31;56029;52.568;13.588;2022-08-19T03:34:50;19.04;98.01
68977;SHT31;56029;52.568;13.588;2022-08-19T03:37:17;19.04;98.04
68977;SHT31;56029;52.568;13.588;2022-08-19T03:39:43;19.02;98.06
68977;SHT31;56029;52.568;13.588;2022-08-19T03:42:09;18.99;98.05
68977;SHT31;56029;52.568;13.588;2022-08-19T03:44:35;19.02;98.08
68977;SHT31;56029;52.568;13.588;2022-08-19T03:47:03;19.06;98.10
68977;SHT31;56029;52.568;13.588;2022-08-19T03:49:31;19.04;98.07
68977;SHT31;56029;52.568;13.588;2022-08-19T03:51:59;18.99;98.11
68977;SHT31;56029;52.568;13.588;2022-08-19T03:54:26;18.97;98.13
68977;SHT31;56029;52.568;13.588;2022-08-19T03:56:54;18.97;98.16
68977;SHT31;56029;52.568;13.588;2022-08-19T03:59:24;18.89;98.19
68977;SHT31;56029;52.568;13.588;2022-08-19T04:01:53;18.90;98.14
68977;SHT31;56029;52.568;13.588;2022-08-19T04:04:21;18.87;98.21
68977;SHT31;56029;52.568;13.588;2022-08-19T04:06:48;18.86;98.24
68977;SHT31;56029;52.568;13.588;2022-08-19T04:09:14;18.84;98.18
68977;SHT31;56029;52.568;13.588;2022-08-19T04:11:48;18.84;98.19
68977;SHT31;56029;52.568;13.588;2022-08-19T04:14:20;18.89;98.26
68977;SHT31;56029;52.568;13.588;2022-08-19T04:16:48;18.87;98.22
68977;SHT31;56029;52.568;13.588;2022-08-19T04:19:14;18.87;98.28
68977;SHT31;56029;52.568;13.588;2022-08-19T04:21:43;18.86;98.30
68977;SHT31;56029;52.568;13.588;2022-08-19T04:24:09;18.89;98.36
68977;SHT31;56029;52.568;13.588;2022-08-19T04:26:36;18.86;98.45
68977;SHT31;56029;52.568;13.588;2022-08-19T04:29:06;18.93;98.57
68977;SHT31;56029;52.568;13.588;2022-08-19T04:31:35;18.92;99.07
68977;SHT31;56029;52.568;13.588;2022-08-19T04:34:04;18.93;99.58
68977;SHT31;56029;52.568;13.588;2022-08-19T04:36:32;19.03;99.63
68977;SHT31;56029;52.568;13.588;2022-08-19T04:44:13;19.10;99.99
68977;SHT31;56029;52.568;13.588;2022-08-19T04:46:42;19.18;99.99
68977;SHT31;56029;52.568;13.588;2022-08-19T04:49:07;19.31;99.99
68977;SHT31;56029;52.568;13.588;2022-08-19T04:51:34;19.36;99.99
68977;SHT31;56029;52.568;13.588;2022-08-19T04:54:03;19.41;99.99
68977;SHT31;56029;52.568;13.588;2022-08-19T04:56:28;19.42;99.99
68977;SHT31;56029;52.568;13.588;2022-08-19T04:58:56;19.45;99.99
68977;SHT31;56029;52.568;13.588;2022-08-19T05:01:27;19.48;99.99
68977;SHT31;56029;52.568;13.588;2022-08-19T05:03:54;19.55;99.99
68977;SHT31;56029;52.568;13.588;2022-08-19T05:06:21;19.57;99.81
68977;SHT31;56029;52.568;13.588;2022-08-19T05:08:47;19.61;99.99
68977;SHT31;56029;52.568;13.588;2022-08-19T05:11:16;19.65;99.97
68977;SHT31;56029;52.568;13.588;2022-08-19T05:13:44;19.71;99.94
68977;SHT31;56029;52.568;13.588;2022-08-19T05:16:11;19.72;99.80
68977;SHT31;56029;52.568;13.588;2022-08-19T05:18:36;19.76;99.03
68977;SHT31;56029;52.568;13.588;2022-08-19T05:21:32;19.85;99.73
68977;SHT31;56029;52.568;13.588;2022-08-19T05:24:28;19.85;99.41
68977;SHT31;56029;52.568;13.588;2022-08-19T05:26:55;19.86;99.45
68977;SHT31;56029;52.568;13.588;2022-08-19T05:29:30;19.87;99.63
68977;SHT31;56029;52.568;13.588;2022-08-19T05:31:57;19.90;99.50
68977;SHT31;56029;52.568;13.588;2022-08-19T05:34:24;19.89;99.52
68977;SHT31;56029;52.568;13.588;2022-08-19T05:36:54;19.90;99.39
68977;SHT31;56029;52.568;13.588;2022-08-19T05:39:24;19.93;99.54
68977;SHT31;56029;52.568;13.588;2022-08-19T05:41:54;20.03;99.61
68977;SHT31;56029;52.568;13.588;2022-08-19T05:44:20;20.03;99.73
68977;SHT31;56029;52.568;13.588;2022-08-19T05:46:47;20.09;99.83
68977;SHT31;56029;52.568;13.588;2022-08-19T05:49:14;20.12;99.80
68977;SHT31;56029;52.568;13.588;2022-08-19T05:51:41;20.10;99.81
68977;SHT31;56029;52.568;13.588;2022-08-19T05:54:08;20.17;99.78
68977;SHT31;56029;52.568;13.588;2022-08-19T05:56:34;20.27;99.47
68977;SHT31;56029;52.568;13.588;2022-08-19T05:59:05;20.29;99.69
68977;SHT31;56029;52.568;13.588;2022-08-19T06:01:35;20.36;99.32
68977;SHT31;56029;52.568;13.588;2022-08-19T06:04:02;20.37;99.29
68977;SHT31;56029;52.568;13.588;2022-08-19T06:06:27;20.41;99.64
68977;SHT31;56029;52.568;13.588;2022-08-19T06:08:53;20.48;99.47
68977;SHT31;56029;52.568;13.588;2022-08-19T06:11:28;20.54;99.22
68977;SHT31;56029;52.568;13.588;2022-08-19T06:14:01;20.60;98.95
68977;SHT31;56029;52.568;13.588;2022-08-19T06:16:27;20.65;98.83
68977;SHT31;56029;52.568;13.588;2022-08-19T06:18:54;20.72;98.48
68977;SHT31;56029;52.568;13.588;2022-08-19T06:21:24;20.74;98.08
68977;SHT31;56029;52.568;13.588;2022-08-19T06:23:50;20.71;98.03
68977;SHT31;56029;52.568;13.588;2022-08-19T06:26:18;20.77;98.16
68977;SHT31;56029;52.568;13.588;2022-08-19T06:28:45;20.77;98.42
68977;SHT31;56029;52.568;13.588;2022-08-19T06:31:16;20.78;98.12
68977;SHT31;56029;52.568;13.588;2022-08-19T06:33:44;20.82;98.70
68977;SHT31;56029;52.568;13.588;2022-08-19T06:36:38;20.88;98.16
68977;SHT31;56029;52.568;13.588;2022-08-19T06:39:08;21.02;98.09
68977;SHT31;56029;52.568;13.588;2022-08-19T06:41:36;21.05;97.88
68977;SHT31;56029;52.568;13.588;2022-08-19T06:44:02;21.03;97.26
68977;SHT31;56029;52.568;13.588;2022-08-19T06:46:28;21.15;97.73
68977;SHT31;56029;52.568;13.588;2022-08-19T06:48:54;21.15;97.53
68977;SHT31;56029;52.568;13.588;2022-08-19T06:51:21;21.30;98.29
68977;SHT31;56029;52.568;13.588;2022-08-19T06:53:48;21.36;98.15
68977;SHT31;56029;52.568;13.588;2022-08-19T06:56:16;21.43;97.56
68977;SHT31;56029;52.568;13.588;2022-08-19T06:58:42;21.39;96.41
68977;SHT31;56029;52.568;13.588;2022-08-19T07:01:08;21.40;95.94
68977;SHT31;56029;52.568;13.588;2022-08-19T07:03:36;21.50;97.37
68977;SHT31;56029;52.568;13.588;2022-08-19T07:06:06;21.53;96.19
68977;SHT31;56029;52.568;13.588;2022-08-19T07:08:34;21.67;97.28
68977;SHT31;56029;52.568;13.588;2022-08-19T07:11:00;21.67;96.50
68977;SHT31;56029;52.568;13.588;2022-08-19T07:13:26;21.73;96.87
68977;SHT31;56029;52.568;13.588;2022-08-19T07:15:52;21.63;95.13
68977;SHT31;56029;52.568;13.588;2022-08-19T07:18:18;21.70;96.10
68977;SHT31;56029;52.568;13.588;2022-08-19T07:20:45;21.64;95.50
68977;SHT31;56029;52.568;13.588;2022-08-19T07:23:12;21.60;95.78
68977;SHT31;56029;52.568;13.588;2022-08-19T07:25:37;21.58;96.25
68977;SHT31;56029;52.568;13.588;2022-08-19T07:28:04;21.58;96.23
68977;SHT31;56029;52.568;13.588;2022-08-19T07:30:30;21.58;96.48
68977;SHT31;56029;52.568;13.588;2022-08-19T07:32:55;21.47;95.73
68977;SHT31;56029;52.568;13.588;2022-08-19T07:35:22;21.45;96.13
68977;SHT31;56029;52.568;13.588;2022-08-19T07:37:48;21.40;96.21
68977;SHT31;56029;52.568;13.588;2022-08-19T07:40:14;21.46;97.29
68977;SHT31;56029;52.568;13.588;2022-08-19T07:42:40;21.50;97.00
68977;SHT31;56029;52.568;13.588;2022-08-19T07:45:06;21.46;96.83
68977;SHT31;56029;52.568;13.588;2022-08-19T07:47:32;21.50;97.12
68977;SHT31;56029;52.568;13.588;2022-08-19T07:49:58;21.50;96.77
68977;SHT31;56029;52.568;13.588;2022-08-19T07:52:23;21.53;96.73
68977;SHT31;56029;52.568;13.588;2022-08-19T07:54:49;21.58;96.90
68977;SHT31;56029;52.568;13.588;2022-08-19T07:57:15;21.63;96.88
68977;SHT31;56029;52.568;13.588;2022-08-19T07:59:41;21.60;95.81
68977;SHT31;56029;52.568;13.588;2022-08-19T08:02:08;21.61;96.03
68977;SHT31;56029;52.568;13.588;2022-08-19T08:04:34;21.63;96.28
68977;SHT31;56029;52.568;13.588;2022-08-19T08:07:18;21.64;95.77
68977;SHT31;56029;52.568;13.588;2022-08-19T08:10:04;21.70;96.77
68977;SHT31;56029;52.568;13.588;2022-08-19T08:12:35;21.78;96.48
68977;SHT31;56029;52.568;13.588;2022-08-19T08:15:04;21.81;96.12
68977;SHT31;56029;52.568;13.588;2022-08-19T08:17:32;21.83;95.60
68977;SHT31;56029;52.568;13.588;2022-08-19T08:19:57;21.83;95.46
68977;SHT31;56029;52.568;13.588;2022-08-19T08:22:24;21.90;95.26
68977;SHT31;56029;52.568;13.588;2022-08-19T08:25:25;21.87;95.40
68977;SHT31;56029;52.568;13.588;2022-08-19T08:27:50;21.88;95.07
68977;SHT31;56029;52.568;13.588;2022-08-19T08:30:21;21.94;94.25
68977;SHT31;56029;52.568;13.588;2022-08-19T08:32:48;21.94;93.47
68977;SHT31;56029;52.568;13.588;2022-08-19T08:35:18;22.05;93.81
68977;SHT31;56029;52.568;13.588;2022-08-19T08:37:46;22.08;94.05
68977;SHT31;56029;52.568;13.588;2022-08-19T08:40:20;22.18;93.96
68977;SHT31;56029;52.568;13.588;2022-08-19T08:42:54;22.29;92.65
68977;SHT31;56029;52.568;13.588;2022-08-19T08:45:24;22.35;92.77
68977;SHT31;56029;52.568;13.588;2022-08-19T08:47:51;22.38;93.26
68977;SHT31;56029;52.568;13.588;2022-08-19T08:50:40;22.49;91.78
68977;SHT31;56029;52.568;13.588;2022-08-19T08:53:08;22.52;91.06
68977;SHT31;56029;52.568;13.588;2022-08-19T08:55:34;22.63;91.85
68977;SHT31;56029;52.568;13.588;2022-08-19T09:00:41;23.04;91.24
68977;SHT31;56029;52.568;13.588;2022-08-19T09:03:22;22.99;89.16
68977;SHT31;56029;52.568;13.588;2022-08-19T09:06:07;23.10;89.09
68977;SHT31;56029;52.568;13.588;2022-08-19T09:09:04;23.10;89.90
68977;SHT31;56029;52.568;13.588;2022-08-19T09:11:45;23.14;89.50
68977;SHT31;56029;52.568;13.588;2022-08-19T09:16:48;23.28;89.12
68977;SHT31;56029;52.568;13.588;2022-08-19T09:19:15;23.32;88.24
68977;SHT31;56029;52.568;13.588;2022-08-19T09:21:42;23.35;88.98
68977;SHT31;56029;52.568;13.588;2022-08-19T09:24:08;23.35;88.25
68977;SHT31;56029;52.568;13.588;2022-08-19T09:26:34;23.27;88.61
68977;SHT31;56029;52.568;13.588;2022-08-19T09:29:01;23.22;88.97
68977;SHT31;56029;52.568;13.588;2022-08-19T09:31:30;23.35;90.04
68977;SHT31;56029;52.568;13.588;2022-08-19T09:33:58;23.44;89.24
68977;SHT31;56029;52.568;13.588;2022-08-19T09:36:26;23.54;89.03
68977;SHT31;56029;52.568;13.588;2022-08-19T09:38:55;23.70;88.07
68977;SHT31;56029;52.568;13.588;2022-08-19T09:41:22;23.86;87.00
68977;SHT31;56029;52.568;13.588;2022-08-19T09:43:52;23.89;86.23
68977;SHT31;56029;52.568;13.588;2022-08-19T09:46:22;23.88;86.55
68977;SHT31;56029;52.568;13.588;2022-08-19T09:48:49;23.88;86.95
68977;SHT31;56029;52.568;13.588;2022-08-19T09:51:19;23.76;87.90
68977;SHT31;56029;52.568;13.588;2022-08-19T09:53:46;23.70;87.66
68977;SHT31;56029;52.568;13.588;2022-08-19T09:56:12;23.55;89.35
68977;SHT31;56029;52.568;13.588;2022-08-19T09:58:39;23.38;89.67
68977;SHT31;56029;52.568;13.588;2022-08-19T10:01:06;23.38;89.35
68977;SHT31;56029;52.568;13.588;2022-08-19T10:03:32;23.51;90.11
68977;SHT31;56029;52.568;13.588;2022-08-19T10:06:01;23.41;88.86
68977;SHT31;56029;52.568;13.588;2022-08-19T10:08:33;23.52;89.51
68977;SHT31;56029;52.568;13.588;2022-08-19T10:10:59;23.48;88.42
68977;SHT31;56029;52.568;13.588;2022-08-19T10:13:28;23.51;89.33
68977;SHT31;56029;52.568;13.588;2022-08-19T10:15:56;23.45;88.38
68977;SHT31;56029;52.568;13.588;2022-08-19T10:18:23;23.51;89.25
68977;SHT31;56029;52.568;13.588;2022-08-19T10:20:50;23.45;88.41
68977;SHT31;56029;52.568;13.588;2022-08-19T10:23:20;23.37;88.83
68977;SHT31;56029;52.568;13.588;2022-08-19T10:25:45;23.37;87.96
68977;SHT31;56029;52.568;13.588;2022-08-19T10:28:11;23.42;88.66
68977;SHT31;56029;52.568;13.588;2022-08-19T10:30:39;23.44;89.10
68977;SHT31;56029;52.568;13.588;2022-08-19T10:33:05;23.49;88.74
68977;SHT31;56029;52.568;13.588;2022-08-19T10:35:31;23.57;89.47
68977;SHT31;56029;52.568;13.588;2022-08-19T10:37:57;23.59;88.88
68977;SHT31;56029;52.568;13.588;2022-08-19T10:40:28;23.62;88.83
68977;SHT31;56029;52.568;13.588;2022-08-19T10:42:54;23.72;86.32
68977;SHT31;56029;52.568;13.588;2022-08-19T10:45:22;23.82;85.45
68977;SHT31;56029;52.568;13.588;2022-08-19T10:47:52;23.82;85.06
68977;SHT31;56029;52.568;13.588;2022-08-19T10:50:18;23.89;84.52
68977;SHT31;56029;52.568;13.588;2022-08-19T10:53:04;24.06;84.61
68977;SHT31;56029;52.568;13.588;2022-08-19T10:55:30;24.23;84.72
68977;SHT31;56029;52.568;13.588;2022-08-19T10:58:18;24.31;85.43
68977;SHT31;56029;52.568;13.588;2022-08-19T11:00:55;24.21;84.86
68977;SHT31;56029;52.568;13.588;2022-08-19T11:03:23;24.12;85.21
68977;SHT31;56029;52.568;13.588;2022-08-19T11:06:03;24.03;85.12
68977;SHT31;56029;52.568;13.588;2022-08-19T11:08:30;24.05;85.50
68977;SHT31;56029;52.568;13.588;2022-08-19T11:10:59;23.98;85.07
68977;SHT31;56029;52.568;13.588;2022-08-19T11:13:27;24.02;84.81
68977;SHT31;56029;52.568;13.588;2022-08-19T11:16:03;24.06;85.74
68977;SHT31;56029;52.568;13.588;2022-08-19T11:18:29;23.98;84.77
68977;SHT31;56029;52.568;13.588;2022-08-19T11:20:55;23.98;85.27
68977;SHT31;56029;52.568;13.588;2022-08-19T11:23:30;23.96;85.41
68977;SHT31;56029;52.568;13.588;2022-08-19T11:25:56;23.89;84.95
68977;SHT31;56029;52.568;13.588;2022-08-19T11:28:23;23.98;85.60
68977;SHT31;56029;52.568;13.588;2022-08-19T11:30:48;23.99;85.11
68977;SHT31;56029;52.568;13.588;2022-08-19T11:33:14;24.09;85.15
68977;SHT31;56029;52.568;13.588;2022-08-19T11:35:39;24.12;84.49
68977;SHT31;56029;52.568;13.588;2022-08-19T11:38:06;24.12;84.35
68977;SHT31;56029;52.568;13.588;2022-08-19T11:40:32;24.19;85.36
68977;SHT31;56029;52.568;13.588;2022-08-19T11:42:58;24.24;85.30
68977;SHT31;56029;52.568;13.588;2022-08-19T11:45:26;24.21;86.03
68977;SHT31;56029;52.568;13.588;2022-08-19T11:47:52;23.99;85.94
68977;SHT31;56029;52.568;13.588;2022-08-19T11:50:18;23.92;86.55
68977;SHT31;56029;52.568;13.588;2022-08-19T11:52:44;23.93;86.73
68977;SHT31;56029;52.568;13.588;2022-08-19T11:55:12;23.66;87.20
68977;SHT31;56029;52.568;13.588;2022-08-19T11:57:37;23.58;87.62
68977;SHT31;56029;52.568;13.588;2022-08-19T12:00:04;23.52;87.22
68977;SHT31;56029;52.568;13.588;2022-08-19T12:02:31;23.54;87.24
68977;SHT31;56029;52.568;13.588;2022-08-19T12:04:57;23.68;87.40
68977;SHT31;56029;52.568;13.588;2022-08-19T12:07:23;23.78;86.52
68977;SHT31;56029;52.568;13.588;2022-08-19T12:09:50;23.76;86.14
68977;SHT31;56029;52.568;13.588;2022-08-19T12:12:16;23.79;86.14
68977;SHT31;56029;52.568;13.588;2022-08-19T12:14:41;23.83;85.51
68977;SHT31;56029;52.568;13.588;2022-08-19T12:17:07;23.89;85.64
68977;SHT31;56029;52.568;13.588;2022-08-19T12:19:36;23.95;84.58
68977;SHT31;56029;52.568;13.588;2022-08-19T12:22:02;24.10;84.43
68977;SHT31;56029;52.568;13.588;2022-08-19T12:24:31;24.21;84.10
68977;SHT31;56029;52.568;13.588;2022-08-19T12:26:58;24.36;83.53
68977;SHT31;56029;52.568;13.588;2022-08-19T12:29:27;24.41;83.70
68977;SHT31;56029;52.568;13.588;2022-08-19T12:31:55;24.44;83.75
68977;SHT31;56029;52.568;13.588;2022-08-19T12:34:31;24.48;84.04
68977;SHT31;56029;52.568;13.588;2022-08-19T12:36:59;24.34;83.12
68977;SHT31;56029;52.568;13.588;2022-08-19T12:39:25;24.44;83.16
68977;SHT31;56029;52.568;13.588;2022-08-19T12:41:51;24.38;83.14
68977;SHT31;56029;52.568;13.588;2022-08-19T12:44:17;24.41;83.34
68977;SHT31;56029;52.568;13.588;2022-08-19T12:46:43;24.40;83.55
68977;SHT31;56029;52.568;13.588;2022-08-19T12:49:08;24.48;82.99
68977;SHT31;56029;52.568;13.588;2022-08-19T12:51:35;24.60;82.41
68977;SHT31;56029;52.568;13.588;2022-08-19T12:54:02;24.60;82.47
68977;SHT31;56029;52.568;13.588;2022-08-19T12:56:27;24.46;81.86
68977;SHT31;56029;52.568;13.588;2022-08-19T12:58:53;24.48;82.42
68977;SHT31;56029;52.568;13.588;2022-08-19T13:01:20;24.60;82.23
68977;SHT31;56029;52.568;13.588;2022-08-19T13:03:46;24.67;82.28
68977;SHT31;56029;52.568;13.588;2022-08-19T13:06:11;24.67;81.80
68977;SHT31;56029;52.568;13.588;2022-08-19T13:08:37;24.89;82.22
68977;SHT31;56029;52.568;13.588;2022-08-19T13:11:10;25.02;82.38
68977;SHT31;56029;52.568;13.588;2022-08-19T13:13:39;25.04;81.91
68977;SHT31;56029;52.568;13.588;2022-08-19T13:16:07;24.82;81.04
68977;SHT31;56029;52.568;13.588;2022-08-19T13:18:33;24.75;81.73
68977;SHT31;56029;52.568;13.588;2022-08-19T13:21:03;24.69;81.71
68977;SHT31;56029;52.568;13.588;2022-08-19T13:23:29;24.69;82.05
68977;SHT31;56029;52.568;13.588;2022-08-19T13:25:57;24.46;82.19
68977;SHT31;56029;52.568;13.588;2022-08-19T13:28:23;24.61;82.64
68977;SHT31;56029;52.568;13.588;2022-08-19T13:30:49;24.72;83.00
68977;SHT31;56029;52.568;13.588;2022-08-19T13:33:47;24.84;81.94
68977;SHT31;56029;52.568;13.588;2022-08-19T13:36:12;24.79;81.32
68977;SHT31;56029;52.568;13.588;2022-08-19T13:38:37;24.84;81.33
68977;SHT31;56029;52.568;13.588;2022-08-19T13:41:04;24.86;80.63
68977;SHT31;56029;52.568;13.588;2022-08-19T13:43:30;24.86;81.19
68977;SHT31;56029;52.568;13.588;2022-08-19T13:45:55;24.82;81.47
68977;SHT31;56029;52.568;13.588;2022-08-19T13:48:22;24.86;80.64
68977;SHT31;56029;52.568;13.588;2022-08-19T13:50:48;25.06;80.02
68977;SHT31;56029;52.568;13.588;2022-08-19T13:53:15;24.92;80.74
68977;SHT31;56029;52.568;13.588;2022-08-19T13:55:42;25.09;80.78
68977;SHT31;56029;52.568;13.588;2022-08-19T13:58:09;25.26;79.82
68977;SHT31;56029;52.568;13.588;2022-08-19T14:00:39;25.23;79.32
68977;SHT31;56029;52.568;13.588;2022-08-19T14:03:05;25.19;79.46
68977;SHT31;56029;52.568;13.588;2022-08-19T14:05:31;25.08;80.06
68977;SHT31;56029;52.568;13.588;2022-08-19T14:07:58;25.19;80.37
68977;SHT31;56029;52.568;13.588;2022-08-19T14:10:24;25.19;80.40
68977;SHT31;56029;52.568;13.588;2022-08-19T14:12:53;25.39;79.79
68977;SHT31;56029;52.568;13.588;2022-08-19T14:15:20;25.33;79.41
68977;SHT31;56029;52.568;13.588;2022-08-19T14:17:46;25.12;78.95
68977;SHT31;56029;52.568;13.588;2022-08-19T14:20:14;25.11;80.53
68977;SHT31;56029;52.568;13.588;2022-08-19T14:22:42;25.29;79.53
68977;SHT31;56029;52.568;13.588;2022-08-19T14:25:09;25.13;79.31
68977;SHT31;56029;52.568;13.588;2022-08-19T14:27:39;25.13;79.70
68977;SHT31;56029;52.568;13.588;2022-08-19T14:30:07;25.09;79.00
68977;SHT31;56029;52.568;13.588;2022-08-19T14:32:34;25.04;79.42
68977;SHT31;56029;52.568;13.588;2022-08-19T14:35:01;25.16;79.52
68977;SHT31;56029;52.568;13.588;2022-08-19T14:37:26;25.18;79.13
68977;SHT31;56029;52.568;13.588;2022-08-19T14:39:52;24.99;79.20
68977;SHT31;56029;52.568;13.588;2022-08-19T14:42:18;24.84;79.93
68977;SHT31;56029;52.568;13.588;2022-08-19T14:44:44;24.74;80.63
68977;SHT31;56029;52.568;13.588;2022-08-19T14:47:10;24.84;80.70
68977;SHT31;56029;52.568;13.588;2022-08-19T14:49:35;24.92;79.89
68977;SHT31;56029;52.568;13.588;2022-08-19T14:52:01;24.85;80.06
68977;SHT31;56029;52.568;13.588;2022-08-19T14:54:28;24.85;79.63
68977;SHT31;56029;52.568;13.588;2022-08-19T14:56:54;24.91;79.82
68977;SHT31;56029;52.568;13.588;2022-08-19T14:59:19;24.95;79.38
68977;SHT31;56029;52.568;13.588;2022-08-19T15:01:45;24.85;80.18
68977;SHT31;56029;52.568;13.588;2022-08-19T15:04:11;24.63;80.35
68977;SHT31;56029;52.568;13.588;2022-08-19T15:06:37;24.53;81.32
68977;SHT31;56029;52.568;13.588;2022-08-19T15:09:03;24.40;81.28
68977;SHT31;56029;52.568;13.588;2022-08-19T15:11:29;24.24;81.81
68977;SHT31;56029;52.568;13.588;2022-08-19T15:13:58;23.99;82.01
68977;SHT31;56029;52.568;13.588;2022-08-19T15:16:25;23.86;82.14
68977;SHT31;56029;52.568;13.588;2022-08-19T15:18:53;23.85;82.74
68977;SHT31;56029;52.568;13.588;2022-08-19T15:21:20;23.82;83.25
68977;SHT31;56029;52.568;13.588;2022-08-19T15:23:48;23.80;83.39
68977;SHT31;56029;52.568;13.588;2022-08-19T15:26:16;23.80;82.95
68977;SHT31;56029;52.568;13.588;2022-08-19T15:28:42;23.68;82.91
68977;SHT31;56029;52.568;13.588;2022-08-19T15:31:09;23.68;83.35